sensor_id;sensor_type;location;lat;lon;timestamp;temperature;humidity
23289;DHT22;11813;50.834;4.280;2023-03-01T00:02:03;3.10;99.90
23289;DHT22;11813;50.834;4.280;2023-03-01T00:04:30;3.10;99.90
23289;DHT22;11813;50.834;4.280;2023-03-01T00:06:56;3.10;99.90
23289;DHT22;11813;50.834;4.280;2023-03-01T00:09:21;3.00;99.90
23289;DHT22;11813;50.834;4.280;2023-03-01T00:11:48;3.00;99.90
23289;DHT22;11813;50.834;4.280;2023-03-01T00:14:14;3.00;99.90
23289;DHT22;11813;50.834;4.280;2023-03-01T00:16:42;3.10;99.90
23289;DHT22;11813;50.834;4.280;2023-03-01T00:19:15;3.10;99.90
23289;DHT22;11813;50.834;4.280;2023-03-01T00:21:41;3.10;99.90
23289;DHT22;11813;50.834;4.280;2023-03-01T00:24:07;3.10;99.90
23289;DHT22;11813;50.834;4.280;2023-03-01T00:26:32;3.00;99.90
23289;DHT22;11813;50.834;4.280;2023-03-01T00:28:58;3.00;99.90
23289;DHT22;11813;50.834;4.280;2023-03-01T00:31:27;3.00;99.90
23289;DHT22;11813;50.834;4.280;2023-03-01T00:33:55;3.00;99.90
23289;DHT22;11813;50.834;4.280;2023-03-01T00:36:23;2.90;99.90
23289;DHT22;11813;50.834;4.280;2023-03-01T00:38:49;2.90;99.90
23289;DHT22;11813;50.834;4.280;2023-03-01T00:41:17;2.80;99.90
23289;DHT22;11813;50.834;4.280;2023-03-01T00:43:43;2.70;99.90
23289;DHT22;11813;50.834;4.280;2023-03-01T00:46:17;2.70;99.90
23289;DHT22;11813;50.834;4.280;2023-03-01T00:48:43;2.60;99.90
23289;DHT22;11813;50.834;4.280;2023-03-01T00:51:11;2.60;99.90
23289;DHT22;11813;50.834;4.280;2023-03-01T00:53:38;2.60;99.90
23289;DHT22;11813;50.834;4.280;2023-03-01T00:56:05;2.60;99.90
23289;DHT22;11813;50.834;4.280;2023-03-01T00:58:31;2.60;99.90
23289;DHT22;11813;50.834;4.280;2023-03-01T01:00:56;2.60;99.90
23289;DHT22;11813;50.834;4.280;2023-03-01T01:03:22;2.50;99.90
23289;DHT22;11813;50.834;4.280;2023-03-01T01:05:50;2.50;99.90
23289;DHT22;11813;50.834;4.280;2023-03-01T01:08:16;2.50;99.90
23289;DHT22;11813;50.834;4.280;2023-03-01T01:10:43;2.50;99.90
23289;DHT22;11813;50.834;4.280;2023-03-01T01:13:09;2.60;99.90
23289;DHT22;11813;50.834;4.280;2023-03-01T01:15:35;2.50;99.90
23289;DHT22;11813;50.834;4.280;2023-03-01T01:18:01;2.50;99.90
23289;DHT22;11813;50.834;4.280;2023-03-01T01:20:26;2.40;99.90
23289;DHT22;11813;50.834;4.280;2023-03-01T01:22:52;2.50;99.90
23289;DHT22;11813;50.834;4.280;2023-03-01T01:25:18;2.50;99.90
23289;DHT22;11813;50.834;4.280;2023-03-01T01:27:43;2.40;99.90
23289;DHT22;11813;50.834;4.280;2023-03-01T01:30:09;2.40;99.90
23289;DHT22;11813;50.834;4.280;2023-03-01T01:32:35;2.50;99.90
23289;DHT22;11813;50.834;4.280;2023-03-01T01:35:00;2.40;99.90
23289;DHT22;11813;50.834;4.280;2023-03-01T01:37:26;2.40;99.90
23289;DHT22;11813;50.834;4.280;2023-03-01T01:39:58;2.40;99.90
23289;DHT22;11813;50.834;4.280;2023-03-01T01:42:24;2.40;99.90
23289;DHT22;11813;50.834;4.280;2023-03-01T01:47:57;2.30;99.90
23289;DHT22;11813;50.834;4.280;2023-03-01T01:50:23;2.30;99.90
23289;DHT22;11813;50.834;4.280;2023-03-01T01:52:50;2.30;99.90
23289;DHT22;11813;50.834;4.280;2023-03-01T01:55:24;2.30;99.90
23289;DHT22;11813;50.834;4.280;2023-03-01T01:57:56;2.30;99.90
23289;DHT22;11813;50.834;4.280;2023-03-01T02:00:26;2.20;99.90
23289;DHT22;11813;50.834;4.280;2023-03-01T02:03:02;2.20;99.90
23289;DHT22;11813;50.834;4.280;2023-03-01T02:05:55;2.30;99.90
23289;DHT22;11813;50.834;4.280;2023-03-01T02:08:24;2.10;99.90
23289;DHT22;11813;50.834;4.280;2023-03-01T02:10:52;2.10;99.90
23289;DHT22;11813;50.834;4.280;2023-03-01T02:13:18;2.10;99.90
23289;DHT22;11813;50.834;4.280;2023-03-01T02:15:44;2.00;99.90
23289;DHT22;11813;50.834;4.280;2023-03-01T02:18:12;2.10;99.90
23289;DHT22;11813;50.834;4.280;2023-03-01T02:20:55;2.10;99.90
23289;DHT22;11813;50.834;4.280;2023-03-01T02:23:23;2.10;99.90
23289;DHT22;11813;50.834;4.280;2023-03-01T02:25:56;2.10;99.90
23289;DHT22;11813;50.834;4.280;2023-03-01T02:30:51;2.10;99.90
23289;DHT22;11813;50.834;4.280;2023-03-01T02:33:38;2.10;99.90
23289;DHT22;11813;50.834;4.280;2023-03-01T02:36:08;2.10;99.90
23289;DHT22;11813;50.834;4.280;2023-03-01T02:38:35;2.00;99.90
23289;DHT22;11813;50.834;4.280;2023-03-01T02:41:02;2.00;99.90
23289;DHT22;11813;50.834;4.280;2023-03-01T02:43:30;2.00;99.90
23289;DHT22;11813;50.834;4.280;2023-03-01T02:46:07;2.00;99.90
23289;DHT22;11813;50.834;4.280;2023-03-01T02:48:48;1.90;99.90
23289;DHT22;11813;50.834;4.280;2023-03-01T02:56:19;1.90;99.90
23289;DHT22;11813;50.834;4.280;2023-03-01T02:58:44;1.90;99.90
23289;DHT22;11813;50.834;4.280;2023-03-01T03:01:13;1.80;99.90
23289;DHT22;11813;50.834;4.280;2023-03-01T03:03:40;1.80;99.90
23289;DHT22;11813;50.834;4.280;2023-03-01T03:06:06;1.70;99.90
23289;DHT22;11813;50.834;4.280;2023-03-01T03:08:32;1.70;99.90
23289;DHT22;11813;50.834;4.280;2023-03-01T03:10:57;1.80;99.90
23289;DHT22;11813;50.834;4.280;2023-03-01T03:13:23;1.70;99.90
23289;DHT22;11813;50.834;4.280;2023-03-01T03:15:54;1.70;99.90
23289;DHT22;11813;50.834;4.280;2023-03-01T03:18:21;1.60;99.90
23289;DHT22;11813;50.834;4.280;2023-03-01T03:20:47;1.60;99.90
23289;DHT22;11813;50.834;4.280;2023-03-01T03:23:18;1.70;99.90
23289;DHT22;11813;50.834;4.280;2023-03-01T03:25:44;1.70;99.90
23289;DHT22;11813;50.834;4.280;2023-03-01T03:28:09;1.60;99.90
23289;DHT22;11813;50.834;4.280;2023-03-01T03:30:37;1.60;99.90
23289;DHT22;11813;50.834;4.280;2023-03-01T03:33:05;1.60;99.90
23289;DHT22;11813;50.834;4.280;2023-03-01T03:35:42;1.50;99.90
23289;DHT22;11813;50.834;4.280;2023-03-01T03:38:10;1.50;99.90
23289;DHT22;11813;50.834;4.280;2023-03-01T03:40:43;1.50;99.90
23289;DHT22;11813;50.834;4.280;2023-03-01T03:43:15;1.50;99.90
23289;DHT22;11813;50.834;4.280;2023-03-01T03:45:41;1.50;99.90
23289;DHT22;11813;50.834;4.280;2023-03-01T03:48:09;1.50;99.90
23289;DHT22;11813;50.834;4.280;2023-03-01T03:50:36;1.40;99.90
23289;DHT22;11813;50.834;4.280;2023-03-01T03:53:04;1.40;99.90
23289;DHT22;11813;50.834;4.280;2023-03-01T03:55:30;1.30;99.90
23289;DHT22;11813;50.834;4.280;2023-03-01T03:57:58;1.30;99.90
23289;DHT22;11813;50.834;4.280;2023-03-01T04:00:26;1.30;99.90
23289;DHT22;11813;50.834;4.280;2023-03-01T04:02:51;1.20;99.90
23289;DHT22;11813;50.834;4.280;2023-03-01T04:05:21;1.20;99.90
23289;DHT22;11813;50.834;4.280;2023-03-01T04:07:47;1.30;99.90
23289;DHT22;11813;50.834;4.280;2023-03-01T04:10:17;1.30;99.90
23289;DHT22;11813;50.834;4.280;2023-03-01T04:12:43;1.30;99.90
23289;DHT22;11813;50.834;4.280;2023-03-01T04:15:10;1.30;99.90
23289;DHT22;11813;50.834;4.280;2023-03-01T04:17:43;1.20;99.90
23289;DHT22;11813;50.834;4.280;2023-03-01T04:20:11;1.10;99.90
23289;DHT22;11813;50.834;4.280;2023-03-01T04:22:38;1.10;99.90
23289;DHT22;11813;50.834;4.280;2023-03-01T04:25:04;1.10;99.90
23289;DHT22;11813;50.834;4.280;2023-03-01T04:27:33;1.20;99.90
23289;DHT22;11813;50.834;4.280;2023-03-01T04:29:58;1.20;99.90
23289;DHT22;11813;50.834;4.280;2023-03-01T04:32:24;1.20;99.90
23289;DHT22;11813;50.834;4.280;2023-03-01T04:34:49;1.20;99.90
23289;DHT22;11813;50.834;4.280;2023-03-01T04:37:15;1.10;99.90
23289;DHT22;11813;50.834;4.280;2023-03-01T04:39:41;1.00;99.90
23289;DHT22;11813;50.834;4.280;2023-03-01T04:42:11;1.00;99.90
23289;DHT22;11813;50.834;4.280;2023-03-01T04:44:37;1.00;99.90
23289;DHT22;11813;50.834;4.280;2023-03-01T04:47:03;1.00;99.90
23289;DHT22;11813;50.834;4.280;2023-03-01T04:49:28;1.00;99.90
23289;DHT22;11813;50.834;4.280;2023-03-01T04:51:54;0.90;99.90
23289;DHT22;11813;50.834;4.280;2023-03-01T04:54:19;0.90;99.90
23289;DHT22;11813;50.834;4.280;2023-03-01T04:56:45;0.90;99.90
23289;DHT22;11813;50.834;4.280;2023-03-01T04:59:10;0.90;99.90
23289;DHT22;11813;50.834;4.280;2023-03-01T05:01:38;0.90;99.90
23289;DHT22;11813;50.834;4.280;2023-03-01T05:04:04;0.90;99.90
23289;DHT22;11813;50.834;4.280;2023-03-01T05:06:30;1.00;99.90
23289;DHT22;11813;50.834;4.280;2023-03-01T05:08:56;1.00;99.90
23289;DHT22;11813;50.834;4.280;2023-03-01T05:11:22;1.00;99.90
23289;DHT22;11813;50.834;4.280;2023-03-01T05:13:47;1.00;99.90
23289;DHT22;11813;50.834;4.280;2023-03-01T05:16:15;1.00;99.90
23289;DHT22;11813;50.834;4.280;2023-03-01T05:18:42;1.00;99.90
23289;DHT22;11813;50.834;4.280;2023-03-01T05:21:13;1.00;99.90
23289;DHT22;11813;50.834;4.280;2023-03-01T05:23:41;1.00;99.90
23289;DHT22;11813;50.834;4.280;2023-03-01T05:26:07;0.90;99.90
23289;DHT22;11813;50.834;4.280;2023-03-01T05:28:34;1.00;99.90
23289;DHT22;11813;50.834;4.280;2023-03-01T05:31:00;0.90;99.90
23289;DHT22;11813;50.834;4.280;2023-03-01T05:33:26;0.90;99.90
23289;DHT22;11813;50.834;4.280;2023-03-01T05:35:52;0.80;99.90
23289;DHT22;11813;50.834;4.280;2023-03-01T05:38:19;0.90;99.90
23289;DHT22;11813;50.834;4.280;2023-03-01T05:40:48;0.80;99.90
23289;DHT22;11813;50.834;4.280;2023-03-01T05:43:15;0.90;99.90
23289;DHT22;11813;50.834;4.280;2023-03-01T05:45:42;0.90;99.90
23289;DHT22;11813;50.834;4.280;2023-03-01T05:48:09;0.90;99.90
23289;DHT22;11813;50.834;4.280;2023-03-01T05:50:37;0.80;99.90
23289;DHT22;11813;50.834;4.280;2023-03-01T05:53:09;0.90;99.90
23289;DHT22;11813;50.834;4.280;2023-03-01T05:55:36;1.00;99.90
23289;DHT22;11813;50.834;4.280;2023-03-01T05:58:04;1.00;99.90
23289;DHT22;11813;50.834;4.280;2023-03-01T06:00:31;1.00;99.90
23289;DHT22;11813;50.834;4.280;2023-03-01T06:02:58;1.00;99.90
23289;DHT22;11813;50.834;4.280;2023-03-01T06:05:25;1.00;99.90
23289;DHT22;11813;50.834;4.280;2023-03-01T06:07:51;0.90;99.90
23289;DHT22;11813;50.834;4.280;2023-03-01T06:10:19;0.80;99.90
23289;DHT22;11813;50.834;4.280;2023-03-01T06:12:45;0.90;99.90
23289;DHT22;11813;50.834;4.280;2023-03-01T06:15:13;0.80;99.90
23289;DHT22;11813;50.834;4.280;2023-03-01T06:17:40;0.90;99.90
23289;DHT22;11813;50.834;4.280;2023-03-01T06:20:21;0.90;99.90
23289;DHT22;11813;50.834;4.280;2023-03-01T06:22:47;0.80;99.90
23289;DHT22;11813;50.834;4.280;2023-03-01T06:25:20;0.90;99.90
23289;DHT22;11813;50.834;4.280;2023-03-01T06:27:46;0.80;99.90
23289;DHT22;11813;50.834;4.280;2023-03-01T06:32:40;0.70;99.90
23289;DHT22;11813;50.834;4.280;2023-03-01T06:35:08;0.90;99.90
23289;DHT22;11813;50.834;4.280;2023-03-01T06:37:34;0.90;99.90
23289;DHT22;11813;50.834;4.280;2023-03-01T06:40:01;1.00;99.90
23289;DHT22;11813;50.834;4.280;2023-03-01T06:42:30;0.90;99.90
23289;DHT22;11813;50.834;4.280;2023-03-01T06:44:55;0.90;99.90
23289;DHT22;11813;50.834;4.280;2023-03-01T06:47:21;0.90;99.90
23289;DHT22;11813;50.834;4.280;2023-03-01T06:49:46;0.90;99.90
23289;DHT22;11813;50.834;4.280;2023-03-01T06:52:12;1.00;99.90
23289;DHT22;11813;50.834;4.280;2023-03-01T06:54:37;1.00;99.90
23289;DHT22;11813;50.834;4.280;2023-03-01T06:57:03;1.00;99.90
23289;DHT22;11813;50.834;4.280;2023-03-01T06:59:29;1.00;99.90
23289;DHT22;11813;50.834;4.280;2023-03-01T07:01:54;1.00;99.90
23289;DHT22;11813;50.834;4.280;2023-03-01T07:04:20;1.00;99.90
23289;DHT22;11813;50.834;4.280;2023-03-01T07:06:45;1.10;99.90
23289;DHT22;11813;50.834;4.280;2023-03-01T07:09:11;0.90;99.90
23289;DHT22;11813;50.834;4.280;2023-03-01T07:11:36;1.00;99.90
23289;DHT22;11813;50.834;4.280;2023-03-01T07:14:02;1.10;99.90
23289;DHT22;11813;50.834;4.280;2023-03-01T07:16:28;1.10;99.90
23289;DHT22;11813;50.834;4.280;2023-03-01T07:18:54;1.00;99.90
23289;DHT22;11813;50.834;4.280;2023-03-01T07:21:19;0.90;99.90
23289;DHT22;11813;50.834;4.280;2023-03-01T07:23:47;1.00;99.90
23289;DHT22;11813;50.834;4.280;2023-03-01T07:26:13;1.10;99.90
23289;DHT22;11813;50.834;4.280;2023-03-01T07:28:39;1.10;99.90
23289;DHT22;11813;50.834;4.280;2023-03-01T07:31:05;1.00;99.90
23289;DHT22;11813;50.834;4.280;2023-03-01T07:33:31;1.00;99.90
23289;DHT22;11813;50.834;4.280;2023-03-01T07:35:59;1.00;99.90
23289;DHT22;11813;50.834;4.280;2023-03-01T07:38:25;1.00;99.90
23289;DHT22;11813;50.834;4.280;2023-03-01T07:40:50;1.10;99.90
23289;DHT22;11813;50.834;4.280;2023-03-01T07:43:16;1.10;99.90
23289;DHT22;11813;50.834;4.280;2023-03-01T07:45:41;1.30;99.90
23289;DHT22;11813;50.834;4.280;2023-03-01T07:48:07;1.30;99.90
23289;DHT22;11813;50.834;4.280;2023-03-01T07:50:32;1.30;99.90
23289;DHT22;11813;50.834;4.280;2023-03-01T07:52:58;1.30;99.90
23289;DHT22;11813;50.834;4.280;2023-03-01T07:55:24;1.40;99.90
23289;DHT22;11813;50.834;4.280;2023-03-01T07:57:49;1.40;99.90
23289;DHT22;11813;50.834;4.280;2023-03-01T08:00:15;1.40;99.90
23289;DHT22;11813;50.834;4.280;2023-03-01T08:02:40;1.60;99.90
23289;DHT22;11813;50.834;4.280;2023-03-01T08:05:08;1.60;99.90
23289;DHT22;11813;50.834;4.280;2023-03-01T08:07:34;1.60;99.90
23289;DHT22;11813;50.834;4.280;2023-03-01T08:09:59;1.70;99.90
23289;DHT22;11813;50.834;4.280;2023-03-01T08:12:25;1.80;99.90
23289;DHT22;11813;50.834;4.280;2023-03-01T08:14:52;2.00;99.90
23289;DHT22;11813;50.834;4.280;2023-03-01T08:17:18;2.00;99.90
23289;DHT22;11813;50.834;4.280;2023-03-01T08:19:44;2.10;99.90
23289;DHT22;11813;50.834;4.280;2023-03-01T08:22:10;2.30;99.90
23289;DHT22;11813;50.834;4.280;2023-03-01T08:24:36;2.40;99.90
23289;DHT22;11813;50.834;4.280;2023-03-01T08:27:01;2.40;99.90
23289;DHT22;11813;50.834;4.280;2023-03-01T08:29:30;2.40;99.90
23289;DHT22;11813;50.834;4.280;2023-03-01T08:31:56;2.60;99.90
23289;DHT22;11813;50.834;4.280;2023-03-01T08:34:21;2.60;99.90
23289;DHT22;11813;50.834;4.280;2023-03-01T08:36:47;2.80;99.90
23289;DHT22;11813;50.834;4.280;2023-03-01T08:39:15;2.90;99.90
23289;DHT22;11813;50.834;4.280;2023-03-01T08:41:42;2.90;99.90
23289;DHT22;11813;50.834;4.280;2023-03-01T08:44:09;3.00;99.90
23289;DHT22;11813;50.834;4.280;2023-03-01T08:46:37;3.10;99.90
23289;DHT22;11813;50.834;4.280;2023-03-01T08:49:08;3.10;99.90
23289;DHT22;11813;50.834;4.280;2023-03-01T08:51:35;3.10;99.90
23289;DHT22;11813;50.834;4.280;2023-03-01T08:54:07;3.30;99.90
23289;DHT22;11813;50.834;4.280;2023-03-01T08:56:33;3.50;99.90
23289;DHT22;11813;50.834;4.280;2023-03-01T08:58:59;3.60;99.90
23289;DHT22;11813;50.834;4.280;2023-03-01T09:01:24;3.80;99.90
23289;DHT22;11813;50.834;4.280;2023-03-01T09:03:50;3.90;99.90
23289;DHT22;11813;50.834;4.280;2023-03-01T09:06:16;4.00;99.90
23289;DHT22;11813;50.834;4.280;2023-03-01T09:08:43;4.10;99.90
23289;DHT22;11813;50.834;4.280;2023-03-01T09:11:11;4.10;99.90
23289;DHT22;11813;50.834;4.280;2023-03-01T09:13:37;4.00;99.90
23289;DHT22;11813;50.834;4.280;2023-03-01T09:16:05;3.90;99.90
23289;DHT22;11813;50.834;4.280;2023-03-01T09:18:32;3.90;99.90
23289;DHT22;11813;50.834;4.280;2023-03-01T09:21:12;4.20;99.90
23289;DHT22;11813;50.834;4.280;2023-03-01T09:23:40;4.40;99.90
23289;DHT22;11813;50.834;4.280;2023-03-01T09:26:08;4.60;99.90
23289;DHT22;11813;50.834;4.280;2023-03-01T09:28:35;4.70;99.90
23289;DHT22;11813;50.834;4.280;2023-03-01T09:31:01;4.80;99.90
23289;DHT22;11813;50.834;4.280;2023-03-01T09:33:29;5.10;99.90
23289;DHT22;11813;50.834;4.280;2023-03-01T09:36:06;5.10;99.90
23289;DHT22;11813;50.834;4.280;2023-03-01T09:38:32;5.30;99.90
23289;DHT22;11813;50.834;4.280;2023-03-01T09:41:00;5.40;99.90
23289;DHT22;11813;50.834;4.280;2023-03-01T09:43:41;5.60;99.90
23289;DHT22;11813;50.834;4.280;2023-03-01T09:46:13;5.80;99.90
23289;DHT22;11813;50.834;4.280;2023-03-01T09:48:55;5.90;99.90
23289;DHT22;11813;50.834;4.280;2023-03-01T09:51:29;5.90;99.90
23289;DHT22;11813;50.834;4.280;2023-03-01T09:53:56;6.00;99.90
23289;DHT22;11813;50.834;4.280;2023-03-01T09:56:36;6.30;99.90
23289;DHT22;11813;50.834;4.280;2023-03-01T09:59:30;6.50;99.90
23289;DHT22;11813;50.834;4.280;2023-03-01T10:02:00;6.70;99.90
23289;DHT22;11813;50.834;4.280;2023-03-01T10:04:40;6.60;99.90
23289;DHT22;11813;50.834;4.280;2023-03-01T10:09:46;6.80;99.90
23289;DHT22;11813;50.834;4.280;2023-03-01T10:12:16;6.80;99.90
23289;DHT22;11813;50.834;4.280;2023-03-01T10:14:51;7.00;99.90
23289;DHT22;11813;50.834;4.280;2023-03-01T10:20:21;7.30;99.90
23289;DHT22;11813;50.834;4.280;2023-03-01T10:22:47;7.60;99.90
23289;DHT22;11813;50.834;4.280;2023-03-01T10:25:47;7.60;99.90
23289;DHT22;11813;50.834;4.280;2023-03-01T10:30:53;7.50;99.90
23289;DHT22;11813;50.834;4.280;2023-03-01T10:33:27;7.40;99.90
23289;DHT22;11813;50.834;4.280;2023-03-01T10:35:54;7.50;99.90
23289;DHT22;11813;50.834;4.280;2023-03-01T10:38:20;7.80;99.90
23289;DHT22;11813;50.834;4.280;2023-03-01T10:43:25;7.90;99.90
23289;DHT22;11813;50.834;4.280;2023-03-01T10:45:52;7.90;99.90
23289;DHT22;11813;50.834;4.280;2023-03-01T10:48:19;8.30;99.90
23289;DHT22;11813;50.834;4.280;2023-03-01T10:50:49;8.60;99.90
23289;DHT22;11813;50.834;4.280;2023-03-01T10:53:24;8.70;99.90
23289;DHT22;11813;50.834;4.280;2023-03-01T10:56:21;9.20;99.90
23289;DHT22;11813;50.834;4.280;2023-03-01T10:59:01;9.60;99.90
23289;DHT22;11813;50.834;4.280;2023-03-01T11:01:32;9.90;99.90
23289;DHT22;11813;50.834;4.280;2023-03-01T11:06:34;9.90;99.90
23289;DHT22;11813;50.834;4.280;2023-03-01T11:11:40;10.60;99.90
23289;DHT22;11813;50.834;4.280;2023-03-01T11:14:18;10.80;99.90
23289;DHT22;11813;50.834;4.280;2023-03-01T11:16:48;10.80;99.90
23289;DHT22;11813;50.834;4.280;2023-03-01T11:19:20;10.60;99.90
23289;DHT22;11813;50.834;4.280;2023-03-01T11:22:10;10.80;99.90
23289;DHT22;11813;50.834;4.280;2023-03-01T11:24:46;10.50;99.90
23289;DHT22;11813;50.834;4.280;2023-03-01T11:27:19;10.30;99.90
23289;DHT22;11813;50.834;4.280;2023-03-01T11:30:00;10.40;99.90
23289;DHT22;11813;50.834;4.280;2023-03-01T11:32:32;10.60;99.90
23289;DHT22;11813;50.834;4.280;2023-03-01T11:35:10;10.50;99.90
23289;DHT22;11813;50.834;4.280;2023-03-01T11:40:52;10.70;99.90
23289;DHT22;11813;50.834;4.280;2023-03-01T11:58:08;11.90;99.90
23289;DHT22;11813;50.834;4.280;2023-03-01T12:03:28;12.30;99.90
23289;DHT22;11813;50.834;4.280;2023-03-01T12:06:28;12.20;99.90
23289;DHT22;11813;50.834;4.280;2023-03-01T12:14:41;12.30;99.90
23289;DHT22;11813;50.834;4.280;2023-03-01T12:19:56;12.30;99.90
23289;DHT22;11813;50.834;4.280;2023-03-01T12:22:43;12.50;99.90
23289;DHT22;11813;50.834;4.280;2023-03-01T12:25:30;12.50;99.90
23289;DHT22;11813;50.834;4.280;2023-03-01T12:30:41;12.50;99.90
23289;DHT22;11813;50.834;4.280;2023-03-01T12:33:33;12.80;99.90
23289;DHT22;11813;50.834;4.280;2023-03-01T12:39:25;13.50;99.90
23289;DHT22;11813;50.834;4.280;2023-03-01T12:50:02;14.70;99.90
23289;DHT22;11813;50.834;4.280;2023-03-01T12:52:39;14.90;99.90
23289;DHT22;11813;50.834;4.280;2023-03-01T12:55:17;15.00;99.90
23289;DHT22;11813;50.834;4.280;2023-03-01T13:01:02;15.00;99.90
23289;DHT22;11813;50.834;4.280;2023-03-01T13:04:23;15.10;99.90
23289;DHT22;11813;50.834;4.280;2023-03-01T13:09:19;15.50;99.90
23289;DHT22;11813;50.834;4.280;2023-03-01T13:11:48;15.50;99.90
23289;DHT22;11813;50.834;4.280;2023-03-01T13:16:46;15.40;99.90
23289;DHT22;11813;50.834;4.280;2023-03-01T13:19:19;14.80;99.90
23289;DHT22;11813;50.834;4.280;2023-03-01T13:21:47;15.10;99.90
23289;DHT22;11813;50.834;4.280;2023-03-01T13:24:45;15.40;99.90
23289;DHT22;11813;50.834;4.280;2023-03-01T13:27:22;15.80;99.90
23289;DHT22;11813;50.834;4.280;2023-03-01T13:29:52;16.30;99.90
23289;DHT22;11813;50.834;4.280;2023-03-01T13:32:32;16.50;99.90
23289;DHT22;11813;50.834;4.280;2023-03-01T13:37:26;16.80;99.90
23289;DHT22;11813;50.834;4.280;2023-03-01T13:39:55;16.60;99.90
23289;DHT22;11813;50.834;4.280;2023-03-01T13:42:36;16.50;99.90
23289;DHT22;11813;50.834;4.280;2023-03-01T13:45:59;16.30;99.90
23289;DHT22;11813;50.834;4.280;2023-03-01T13:48:03;16.10;99.90
23289;DHT22;11813;50.834;4.280;2023-03-01T13:50:36;16.10;99.30
23289;DHT22;11813;50.834;4.280;2023-03-01T13:53:06;16.20;99.60
23289;DHT22;11813;50.834;4.280;2023-03-01T13:55:41;15.90;99.60
23289;DHT22;11813;50.834;4.280;2023-03-01T13:58:22;15.80;99.10
23289;DHT22;11813;50.834;4.280;2023-03-01T14:00:55;15.70;99.20
23289;DHT22;11813;50.834;4.280;2023-03-01T14:03:21;15.90;99.90
23289;DHT22;11813;50.834;4.280;2023-03-01T14:08:30;16.20;99.90
23289;DHT22;11813;50.834;4.280;2023-03-01T14:16:41;16.50;99.40
23289;DHT22;11813;50.834;4.280;2023-03-01T14:19:19;16.50;99.90
23289;DHT22;11813;50.834;4.280;2023-03-01T14:22:22;16.80;98.40
23289;DHT22;11813;50.834;4.280;2023-03-01T14:25:06;16.70;99.90
23289;DHT22;11813;50.834;4.280;2023-03-01T14:27:42;16.80;98.90
23289;DHT22;11813;50.834;4.280;2023-03-01T14:30:19;16.40;99.00
23289;DHT22;11813;50.834;4.280;2023-03-01T14:33:01;16.40;98.50
23289;DHT22;11813;50.834;4.280;2023-03-01T14:35:30;16.10;99.90
23289;DHT22;11813;50.834;4.280;2023-03-01T14:37:56;16.30;99.90
23289;DHT22;11813;50.834;4.280;2023-03-01T14:40:31;16.10;99.70
23289;DHT22;11813;50.834;4.280;2023-03-01T14:42:59;16.30;99.50
23289;DHT22;11813;50.834;4.280;2023-03-01T14:45:27;16.80;98.90
23289;DHT22;11813;50.834;4.280;2023-03-01T14:47:54;17.00;99.70
23289;DHT22;11813;50.834;4.280;2023-03-01T14:50:30;17.30;98.40
23289;DHT22;11813;50.834;4.280;2023-03-01T14:52:59;17.50;97.90
23289;DHT22;11813;50.834;4.280;2023-03-01T14:55:32;17.60;97.90
23289;DHT22;11813;50.834;4.280;2023-03-01T14:58:02;17.30;97.50
23289;DHT22;11813;50.834;4.280;2023-03-01T15:00:30;17.10;99.00
23289;DHT22;11813;50.834;4.280;2023-03-01T15:03:00;16.90;97.70
23289;DHT22;11813;50.834;4.280;2023-03-01T15:05:32;16.90;98.80
23289;DHT22;11813;50.834;4.280;2023-03-01T15:08:01;17.20;98.70
23289;DHT22;11813;50.834;4.280;2023-03-01T15:10:32;16.80;97.60
23289;DHT22;11813;50.834;4.280;2023-03-01T15:13:22;16.60;97.30
23289;DHT22;11813;50.834;4.280;2023-03-01T15:15:49;16.50;98.60
23289;DHT22;11813;50.834;4.280;2023-03-01T15:18:25;16.10;97.50
23289;DHT22;11813;50.834;4.280;2023-03-01T15:20:52;16.10;97.20
23289;DHT22;11813;50.834;4.280;2023-03-01T15:23:20;15.80;96.40
23289;DHT22;11813;50.834;4.280;2023-03-01T15:25:46;15.60;98.00
23289;DHT22;11813;50.834;4.280;2023-03-01T15:28:19;15.20;97.50
23289;DHT22;11813;50.834;4.280;2023-03-01T15:30:46;15.00;97.40
23289;DHT22;11813;50.834;4.280;2023-03-01T15:33:29;14.70;98.60
23289;DHT22;11813;50.834;4.280;2023-03-01T15:36:44;14.50;99.90
23289;DHT22;11813;50.834;4.280;2023-03-01T15:38:56;14.30;99.50
23289;DHT22;11813;50.834;4.280;2023-03-01T15:41:37;14.10;99.60
23289;DHT22;11813;50.834;4.280;2023-03-01T15:44:17;13.90;99.50
23289;DHT22;11813;50.834;4.280;2023-03-01T15:46:47;13.90;98.80
23289;DHT22;11813;50.834;4.280;2023-03-01T15:49:37;13.80;98.90
23289;DHT22;11813;50.834;4.280;2023-03-01T15:52:04;13.40;99.40
23289;DHT22;11813;50.834;4.280;2023-03-01T15:54:31;13.40;99.90
23289;DHT22;11813;50.834;4.280;2023-03-01T15:56:57;12.90;99.20
23289;DHT22;11813;50.834;4.280;2023-03-01T15:59:22;12.50;99.90
23289;DHT22;11813;50.834;4.280;2023-03-01T16:01:49;12.20;99.90
23289;DHT22;11813;50.834;4.280;2023-03-01T16:04:16;11.90;99.90
23289;DHT22;11813;50.834;4.280;2023-03-01T16:06:50;11.80;99.90
23289;DHT22;11813;50.834;4.280;2023-03-01T16:09:23;11.60;99.90
23289;DHT22;11813;50.834;4.280;2023-03-01T16:11:49;11.70;99.90
23289;DHT22;11813;50.834;4.280;2023-03-01T16:14:15;11.60;99.90
23289;DHT22;11813;50.834;4.280;2023-03-01T16:16:42;11.30;99.90
23289;DHT22;11813;50.834;4.280;2023-03-01T16:19:08;11.40;99.90
23289;DHT22;11813;50.834;4.280;2023-03-01T16:21:33;11.40;99.90
23289;DHT22;11813;50.834;4.280;2023-03-01T16:23:59;11.50;99.90
23289;DHT22;11813;50.834;4.280;2023-03-01T16:26:24;11.30;99.90
23289;DHT22;11813;50.834;4.280;2023-03-01T16:28:50;11.20;99.90
23289;DHT22;11813;50.834;4.280;2023-03-01T16:31:19;11.50;99.90
23289;DHT22;11813;50.834;4.280;2023-03-01T16:33:45;11.70;99.90
23289;DHT22;11813;50.834;4.280;2023-03-01T16:36:15;11.40;99.90
23289;DHT22;11813;50.834;4.280;2023-03-01T16:38:41;11.60;99.90
23289;DHT22;11813;50.834;4.280;2023-03-01T16:41:12;11.70;99.90
23289;DHT22;11813;50.834;4.280;2023-03-01T16:43:38;11.70;99.90
23289;DHT22;11813;50.834;4.280;2023-03-01T16:46:10;11.40;99.90
23289;DHT22;11813;50.834;4.280;2023-03-01T16:48:37;11.10;99.90
23289;DHT22;11813;50.834;4.280;2023-03-01T16:51:03;11.30;99.90
23289;DHT22;11813;50.834;4.280;2023-03-01T16:53:29;11.90;99.90
23289;DHT22;11813;50.834;4.280;2023-03-01T16:55:58;12.60;99.90
23289;DHT22;11813;50.834;4.280;2023-03-01T16:58:24;12.90;99.90
23289;DHT22;11813;50.834;4.280;2023-03-01T17:00:55;13.00;99.90
23289;DHT22;11813;50.834;4.280;2023-03-01T17:03:23;12.90;99.90
23289;DHT22;11813;50.834;4.280;2023-03-01T17:05:49;12.70;99.90
23289;DHT22;11813;50.834;4.280;2023-03-01T17:08:16;12.10;99.90
23289;DHT22;11813;50.834;4.280;2023-03-01T17:10:42;11.60;99.90
23289;DHT22;11813;50.834;4.280;2023-03-01T17:13:08;11.30;99.90
23289;DHT22;11813;50.834;4.280;2023-03-01T17:15:35;10.70;99.90
23289;DHT22;11813;50.834;4.280;2023-03-01T17:18:02;10.20;99.90
23289;DHT22;11813;50.834;4.280;2023-03-01T17:20:28;9.70;99.90
23289;DHT22;11813;50.834;4.280;2023-03-01T17:22:54;9.60;99.90
23289;DHT22;11813;50.834;4.280;2023-03-01T17:25:19;9.50;99.90
23289;DHT22;11813;50.834;4.280;2023-03-01T17:27:45;9.30;99.90
23289;DHT22;11813;50.834;4.280;2023-03-01T17:30:12;9.20;99.90